createdAt,value
2019-03-18T00:00:25.468Z,100325.14
2019-03-18T00:03:08.177Z,100326.25
2019-03-18T00:05:41.301Z,100323.38
2019-03-18T00:08:14.413Z,100323.17
2019-03-18T00:10:56.645Z,100313.73
2019-03-18T00:13:29.731Z,100319.48
2019-03-18T00:16:03.202Z,100326.14
2019-03-18T00:18:36.688Z,100323.80
2019-03-18T00:21:10.696Z,100324.81
2019-03-18T00:23:44.072Z,100322.67
2019-03-18T00:26:17.372Z,100330.95
2019-03-18T00:28:59.855Z,100331.67
2019-03-18T00:31:42.135Z,100328.90
2019-03-18T00:34:15.714Z,100339.67
2019-03-18T00:36:48.890Z,100335.67
2019-03-18T00:39:22.143Z,100339.36
2019-03-18T00:42:04.960Z,100341.63
2019-03-18T00:44:52.932Z,100340.30
2019-03-18T00:47:26.028Z,100345.50
2019-03-18T00:49:59.332Z,100337.12
2019-03-18T00:52:48.199Z,100341.62
2019-03-18T00:55:21.278Z,100352.80
2019-03-18T00:57:55.066Z,100345.72
2019-03-18T01:00:28.196Z,100346.64
2019-03-18T01:03:01.424Z,100349.62
2019-03-18T01:05:35.163Z,100359.75
2019-03-18T01:08:08.802Z,100361.19
2019-03-18T01:10:41.913Z,100359.64
2019-03-18T01:13:24.035Z,100358.13
2019-03-18T01:16:02.468Z,100365.50
2019-03-18T01:18:35.646Z,100364.79
2019-03-18T01:21:09.648Z,100368.16
2019-03-18T01:23:43.088Z,100372.85
2019-03-18T01:26:16.928Z,100362.73
2019-03-18T01:28:50.672Z,100371.23
2019-03-18T01:31:25.674Z,100369.70
2019-03-18T01:33:59.530Z,100387.11
2019-03-18T01:36:33.084Z,100397.61
2019-03-18T01:39:07.989Z,100401.80
2019-03-18T01:41:41.903Z,100411.59
2019-03-18T01:44:15.053Z,100393.26
2019-03-18T01:46:49.671Z,100395.31
2019-03-18T01:49:31.779Z,100403.56
2019-03-18T01:52:05.027Z,100399.98
2019-03-18T01:54:38.954Z,100406.91
2019-03-18T01:57:12.460Z,100405.06
2019-03-18T01:59:46.993Z,100410.76
2019-03-18T02:02:29.266Z,100407.84
2019-03-18T02:05:02.728Z,100417.84
2019-03-18T02:07:35.888Z,100401.07
2019-03-18T02:10:09.627Z,100400.11
2019-03-18T02:12:43.277Z,100406.66
2019-03-18T02:15:16.377Z,100406.27
2019-03-18T02:17:58.929Z,100410.41
2019-03-18T02:20:41.121Z,100411.33
2019-03-18T02:23:14.601Z,100406.50
2019-03-18T02:25:48.418Z,100405.34
2019-03-18T02:28:22.245Z,100399.85
2019-03-18T02:30:55.610Z,100406.30
2019-03-18T02:33:29.468Z,100409.07
2019-03-18T02:36:03.053Z,100416.05
2019-03-18T02:38:36.515Z,100407.34
2019-03-18T02:41:10.303Z,100405.30
2019-03-18T02:43:54.393Z,100409.73
2019-03-18T02:46:27.805Z,100413.38
2019-03-18T02:49:00.961Z,100410.52
2019-03-18T02:51:42.708Z,100397.23
2019-03-18T02:54:16.096Z,100413.67
2019-03-18T02:56:49.646Z,100410.88
2019-03-18T02:59:23.095Z,100410.37
2019-03-18T03:01:56.699Z,100413.73
2019-03-18T03:04:30.325Z,100421.72
2019-03-18T03:07:03.130Z,100418.85
2019-03-18T03:09:36.639Z,100415.18
2019-03-18T03:12:10.126Z,100402.52
2019-03-18T03:14:43.325Z,100392.66
2019-03-18T03:17:21.518Z,100406.79
2019-03-18T03:19:51.960Z,100401.78
2019-03-18T03:22:25.750Z,100421.97
2019-03-18T03:24:59.572Z,100430.27
2019-03-18T03:27:33.318Z,100429.86
2019-03-18T03:30:07.430Z,100435.18
2019-03-18T03:32:50.247Z,100424.06
2019-03-18T03:35:23.378Z,100432.66
2019-03-18T03:37:57.264Z,100439.83
2019-03-18T03:40:30.812Z,100440.47
2019-03-18T03:43:05.643Z,100434.63
2019-03-18T03:45:38.726Z,100446.19
2019-03-18T03:48:12.172Z,100442.72
2019-03-18T03:50:45.344Z,100451.04
2019-03-18T03:53:30.837Z,100444.92
2019-03-18T03:56:12.897Z,100447.17
2019-03-18T03:58:56.808Z,100451.38
2019-03-18T04:01:30.354Z,100461.02
2019-03-18T04:04:03.149Z,100469.20
2019-03-18T04:06:45.131Z,100477.56
2019-03-18T04:09:18.466Z,100476.02
2019-03-18T04:11:51.864Z,100475.69
2019-03-18T04:14:25.412Z,100471.30
2019-03-18T04:17:02.601Z,100477.52
2019-03-18T04:19:40.698Z,100483.77
2019-03-18T04:22:14.131Z,100483.77
2019-03-18T04:24:47.593Z,100480.67
2019-03-18T04:27:24.570Z,100479.45
2019-03-18T04:29:57.552Z,100486.75
2019-03-18T04:32:39.855Z,100493.00
2019-03-18T04:35:16.331Z,100491.73
2019-03-18T04:37:50.422Z,100495.52
2019-03-18T04:40:24.146Z,100510.47
2019-03-18T04:42:58.038Z,100511.83
2019-03-18T04:45:42.074Z,100515.85
2019-03-18T04:48:32.271Z,100515.38
2019-03-18T04:51:05.856Z,100519.15
2019-03-18T04:53:45.701Z,100517.01
2019-03-18T04:56:19.549Z,100522.83
2019-03-18T04:58:53.870Z,100527.77
2019-03-18T05:01:36.109Z,100524.39
2019-03-18T05:04:09.534Z,100525.98
2019-03-18T05:06:44.391Z,100540.51
2019-03-18T05:09:18.385Z,100544.30
2019-03-18T05:12:01.430Z,100550.83
2019-03-18T05:14:34.927Z,100544.76
2019-03-18T05:17:08.802Z,100545.08
2019-03-18T05:19:58.889Z,100549.63
2019-03-18T05:22:42.303Z,100556.28
2019-03-18T05:25:16.156Z,100565.97
2019-03-18T05:27:49.269Z,100556.53
2019-03-18T05:30:23.267Z,100558.38
2019-03-18T05:32:56.837Z,100569.67
2019-03-18T05:35:30.397Z,100579.56
2019-03-18T05:38:03.562Z,100579.16
2019-03-18T05:40:37.109Z,100583.98
2019-03-18T05:43:10.249Z,100580.23
2019-03-18T05:45:43.687Z,100577.57
2019-03-18T05:48:26.180Z,100576.07
2019-03-18T05:50:59.960Z,100586.11
2019-03-18T05:53:34.275Z,100585.70
2019-03-18T05:56:16.111Z,100589.61
2019-03-18T05:58:50.986Z,100600.03
2019-03-18T06:01:24.429Z,100604.98
2019-03-18T06:03:58.139Z,100612.25
2019-03-18T06:06:31.523Z,100617.69
2019-03-18T06:09:13.893Z,100617.17
2019-03-18T06:11:46.993Z,100623.79
2019-03-18T06:14:20.914Z,100630.52
2019-03-18T06:16:54.569Z,100626.61
2019-03-18T06:19:28.421Z,100639.69
2019-03-18T08:36:03.145Z,100819.33
2019-03-18T08:39:15.525Z,100812.94
2019-03-18T08:41:48.652Z,100823.72
2019-03-18T08:44:22.359Z,100826.91
2019-03-18T08:46:55.485Z,100825.11
2019-03-18T08:49:28.895Z,100826.59
2019-03-18T08:52:10.855Z,100834.17
2019-03-18T08:54:44.298Z,100832.45
2019-03-18T08:57:17.875Z,100836.14
2019-03-18T08:59:51.353Z,100827.59
2019-03-18T09:02:24.546Z,100851.22
2019-03-18T09:05:09.699Z,100846.72
2019-03-18T09:08:22.199Z,100842.55
2019-03-18T09:10:56.030Z,100864.67
2019-03-18T09:13:44.610Z,100917.80
2019-03-18T09:16:19.879Z,100919.67
2019-03-18T09:18:53.316Z,100923.80
2019-03-18T09:21:28.114Z,100945.58
2019-03-18T09:24:01.609Z,100943.61
2019-03-18T09:26:35.132Z,100951.75
2019-03-18T09:29:08.650Z,100959.53
2019-03-18T09:31:42.805Z,100975.89
2019-03-18T09:34:16.643Z,100945.17
2019-03-18T09:36:49.921Z,100948.94
2019-03-18T09:39:23.646Z,100954.59
2019-03-18T09:41:56.800Z,100943.73
2019-03-18T09:44:30.357Z,100940.09
2019-03-18T09:47:03.977Z,100946.88
2019-03-18T09:49:37.450Z,100941.19
2019-03-18T09:52:10.672Z,100937.58
2019-03-18T09:54:52.861Z,100932.44
2019-03-18T09:57:27.792Z,100930.33
2019-03-18T10:00:01.041Z,100928.37
2019-03-18T10:02:35.347Z,100925.36
2019-03-18T10:05:08.803Z,100921.94
2019-03-18T10:07:42.748Z,100924.95
2019-03-18T10:10:17.085Z,100921.13
2019-03-18T10:29:55.187Z,100924.91
2019-03-18T10:32:29.947Z,100929.88
2019-03-18T10:35:03.480Z,100934.83
2019-03-18T10:37:37.283Z,100944.19
2019-03-18T10:40:11.198Z,100964.86
2019-03-18T10:42:45.069Z,100973.00
2019-03-18T10:46:28.744Z,100973.48
2019-03-18T10:49:02.652Z,100964.14
2019-03-18T10:51:36.066Z,100959.48
2019-03-18T10:54:09.225Z,100964.40
2019-03-18T10:56:42.695Z,100975.64
2019-03-18T10:59:15.905Z,100961.66
2019-03-18T11:01:58.001Z,100962.95
2019-03-18T11:04:31.407Z,100963.27
2019-03-18T11:07:06.413Z,100966.78
2019-03-18T11:09:39.978Z,100969.67
2019-03-18T11:12:13.128Z,100961.97
2019-03-18T11:15:58.225Z,100993.55
2019-03-18T11:18:31.631Z,101029.97
2019-03-18T11:21:04.435Z,101004.59
2019-03-18T11:23:46.631Z,101018.73
2019-03-18T11:26:19.758Z,101014.79
2019-03-18T11:28:51.203Z,101023.61
2019-03-18T11:31:33.774Z,101028.34
2019-03-18T11:34:16.359Z,101031.49
2019-03-18T11:36:49.634Z,101039.03
2019-03-18T11:39:22.805Z,101042.23
2019-03-18T11:41:56.825Z,101047.38
2019-03-18T11:44:30.610Z,101050.75
2019-03-18T11:47:04.178Z,101043.81
2019-03-18T11:49:39.929Z,101046.40
2019-03-18T11:52:13.431Z,101051.59
2019-03-18T11:54:58.540Z,101041.52
2019-03-18T11:57:31.624Z,101064.26
2019-03-18T12:00:06.119Z,101056.52
2019-03-18T12:02:48.591Z,101059.27
2019-03-18T12:05:23.054Z,101051.41
2019-03-18T12:07:56.197Z,101053.74
2019-03-18T12:21:02.900Z,101059.75
2019-03-18T12:23:36.738Z,101075.36
2019-03-18T12:26:18.940Z,101058.95
2019-03-18T12:28:53.074Z,101051.18
2019-03-18T12:31:26.610Z,101072.27
2019-03-18T12:34:00.190Z,101072.50
2019-03-18T12:36:33.303Z,101054.03
2019-03-18T12:39:07.993Z,101066.69
2019-03-18T12:41:42.599Z,101063.82
2019-03-18T12:44:16.378Z,101053.27
2019-03-18T13:08:27.883Z,101101.14
2019-03-18T13:11:01.767Z,101093.44
2019-03-18T13:13:34.544Z,101107.96
2019-03-18T13:16:18.189Z,101135.13
2019-03-18T13:18:52.281Z,101147.25
2019-03-18T13:21:34.412Z,101141.89
2019-03-18T13:24:08.131Z,101138.30
2019-03-18T13:26:41.563Z,101145.73
2019-03-18T13:29:15.420Z,101142.20
2019-03-18T13:31:48.960Z,101134.50
2019-03-18T13:34:22.531Z,101122.74
2019-03-18T13:36:55.998Z,101127.02
2019-03-18T13:39:29.743Z,101127.27
2019-03-18T13:42:03.270Z,101124.42
2019-03-18T13:44:36.747Z,101128.05
2019-03-18T13:47:09.853Z,101141.34
2019-03-18T13:50:23.609Z,101138.25
2019-03-18T13:52:57.090Z,101144.93
2019-03-18T13:55:30.903Z,101149.39
2019-03-18T13:58:04.438Z,101142.75
2019-03-18T14:00:38.407Z,101153.02
2019-03-18T14:03:11.865Z,101149.91
2019-03-18T14:05:45.025Z,101164.38
2019-03-18T14:08:18.628Z,101168.75
2019-03-18T14:10:52.274Z,101158.19
2019-03-18T14:13:25.531Z,101166.92
2019-03-18T14:15:59.498Z,101169.44
2019-03-18T14:18:32.910Z,101171.09
2019-03-18T14:21:06.287Z,101173.86
2019-03-18T14:23:39.394Z,101187.90
2019-03-18T14:26:21.664Z,101189.22
2019-03-18T14:28:56.901Z,101194.21
2019-03-18T14:31:30.456Z,101193.72
2019-03-18T14:34:03.573Z,101195.24
2019-03-18T14:36:36.743Z,101186.66
2019-03-18T14:39:20.346Z,101193.78
2019-03-18T14:41:54.184Z,101211.10
2019-03-18T14:44:27.675Z,101205.55
2019-03-18T14:47:01.250Z,101214.28
2019-03-18T14:49:34.408Z,101208.64
2019-03-18T14:52:07.797Z,101225.58
2019-03-18T14:55:30.987Z,101234.62
2019-03-18T14:58:04.123Z,101239.64
2019-03-18T15:00:37.706Z,101243.09
2019-03-18T15:03:11.530Z,101248.06
2019-03-18T15:05:44.317Z,101250.49
2019-03-18T15:08:17.923Z,101261.03
2019-03-18T15:10:51.203Z,101265.16
2019-03-18T15:13:30.936Z,101259.72
2019-03-18T15:16:00.518Z,101260.61
2019-03-18T15:18:45.520Z,101263.84
2019-03-18T15:21:19.120Z,101273.13
2019-03-18T15:23:52.939Z,101264.37
2019-03-18T15:26:35.551Z,101283.52
2019-03-18T15:29:09.271Z,101292.31
2019-03-18T15:31:42.771Z,101288.55
2019-03-18T15:34:15.121Z,101297.17
2019-03-18T15:36:57.777Z,101309.02
2019-03-18T15:39:31.516Z,101308.01
2019-03-18T15:42:04.797Z,101313.12
2019-03-18T15:44:38.435Z,101322.51
2019-03-18T15:47:11.605Z,101327.19
2019-03-18T15:49:46.967Z,101338.24
2019-03-18T15:52:20.349Z,101364.52
2019-03-18T15:54:54.317Z,101369.88
2019-03-18T15:57:29.897Z,101371.55
2019-03-18T16:00:02.795Z,101359.85
2019-03-18T16:02:45.747Z,101360.59
2019-03-18T16:05:19.374Z,101364.66
2019-03-18T16:07:53.603Z,101362.70
2019-03-18T16:10:39.940Z,101360.72
2019-03-18T16:13:14.318Z,101366.73
2019-03-18T16:15:48.757Z,101370.22
2019-03-18T16:18:22.549Z,101377.84
2019-03-18T16:20:55.890Z,101373.97
2019-03-18T16:23:29.664Z,101376.19
2019-03-18T16:26:04.552Z,101380.15
2019-03-18T16:28:46.985Z,101376.12
2019-03-18T16:31:20.544Z,101395.21
2019-03-18T16:33:55.378Z,101399.39
2019-03-18T16:36:28.793Z,101403.73
2019-03-18T16:39:02.233Z,101412.33
2019-03-18T16:41:45.451Z,101413.52
2019-03-18T16:44:19.750Z,101425.70
2019-03-18T16:47:02.371Z,101424.36
2019-03-18T16:50:18.558Z,101431.09
2019-03-18T16:54:00.501Z,101441.19
2019-03-18T16:56:34.070Z,101433.91
2019-03-18T16:59:07.364Z,101443.46
2019-03-18T17:01:41.166Z,101443.14
2019-03-18T17:04:14.724Z,101451.88
2019-03-18T17:06:47.908Z,101459.50
2019-03-18T17:09:21.936Z,101465.32
2019-03-18T17:11:56.019Z,101465.70
2019-03-18T17:14:30.383Z,101463.91
2019-03-18T17:17:03.785Z,101474.19
2019-03-18T17:19:48.968Z,101474.39
2019-03-18T17:22:22.798Z,101478.61
2019-03-18T17:25:05.801Z,101486.48
2019-03-18T17:27:48.146Z,101494.28
2019-03-18T17:30:21.693Z,101497.34
2019-03-18T17:32:54.558Z,101493.26
2019-03-18T17:35:37.038Z,101501.75
2019-03-18T17:38:10.388Z,101509.34
2019-03-18T17:40:43.853Z,101511.38
2019-03-18T17:43:17.404Z,101521.97
2019-03-18T17:45:50.987Z,101529.83
2019-03-18T17:48:24.557Z,101533.36
2019-03-18T17:50:58.102Z,101536.38
2019-03-18T17:53:31.755Z,101533.41
2019-03-18T17:56:05.725Z,101542.80
2019-03-18T17:58:39.273Z,101537.17
2019-03-18T18:01:12.499Z,101544.65
2019-03-18T18:03:45.124Z,101548.22
2019-03-18T18:06:33.438Z,101550.55
2019-03-18T18:09:09.553Z,101556.30
2019-03-18T18:11:51.424Z,101566.52
2019-03-18T18:14:24.553Z,101573.27
2019-03-18T18:16:57.718Z,101582.75
2019-03-18T18:19:40.067Z,101591.56
2019-03-18T18:22:12.539Z,101593.20
2019-03-18T18:24:55.255Z,101594.83
2019-03-18T18:27:28.762Z,101607.35
2019-03-18T18:30:02.255Z,101605.50
2019-03-18T18:32:36.742Z,101614.31
2019-03-18T18:35:10.262Z,101622.14
2019-03-18T18:37:44.507Z,101622.99
2019-03-18T18:40:17.893Z,101622.14
2019-03-18T18:42:51.703Z,101624.28
2019-03-18T18:45:23.849Z,101621.06
2019-03-18T18:47:57.115Z,101623.73
2019-03-18T18:50:30.590Z,101633.70
2019-03-18T18:53:03.273Z,101647.66
2019-03-18T18:55:45.772Z,101653.34
2019-03-18T18:58:19.423Z,101661.87
2019-03-18T19:00:52.927Z,101672.60
2019-03-18T19:03:26.378Z,101680.03
2019-03-18T19:05:59.935Z,101678.03
2019-03-18T19:08:34.643Z,101680.72
2019-03-18T19:11:23.139Z,101674.77
2019-03-18T19:14:05.825Z,101678.26
2019-03-18T19:16:39.684Z,101689.81
2019-03-18T19:19:32.123Z,101696.18
2019-03-18T19:22:04.533Z,101699.19
2019-03-18T19:24:47.202Z,101701.20
2019-03-18T19:27:29.693Z,101702.40
2019-03-18T19:30:03.568Z,101711.06
2019-03-18T19:32:37.220Z,101719.59
2019-03-18T19:47:39.988Z,101743.96
2019-03-18T19:50:28.181Z,101742.27
2019-03-18T19:53:01.815Z,101743.28
2019-03-18T19:55:40.609Z,101750.61
2019-03-18T19:58:52.918Z,101763.09
2019-03-18T20:01:26.070Z,101759.28
2019-03-18T20:04:09.575Z,101754.61
2019-03-18T20:06:43.126Z,101762.94
2019-03-18T20:09:16.460Z,101759.94
2019-03-18T20:11:50.114Z,101762.60
2019-03-18T20:14:42.555Z,101769.77
2019-03-18T20:17:24.909Z,101775.09
2019-03-18T20:19:58.707Z,101768.92
2019-03-18T20:22:43.628Z,101773.92
2019-03-18T20:25:17.046Z,101777.77
2019-03-18T20:27:50.488Z,101783.57
2019-03-18T20:30:33.049Z,101785.58
2019-03-18T20:33:21.719Z,101782.75
2019-03-18T20:35:56.227Z,101770.41
2019-03-18T20:38:34.005Z,101790.41
2019-03-18T20:41:19.266Z,101780.58
2019-03-18T20:44:02.183Z,101771.58
2019-03-18T20:46:44.983Z,101781.41
2019-03-18T20:49:27.628Z,101784.55
2019-03-18T20:52:00.880Z,101796.18
2019-03-18T20:54:34.500Z,101795.02
2019-03-18T20:57:07.638Z,101811.50
2019-03-18T20:59:41.585Z,101809.48
2019-03-18T21:02:15.055Z,101807.97
2019-03-18T21:04:49.006Z,101810.28
2019-03-18T21:07:22.482Z,101823.59
2019-03-18T21:09:56.215Z,101816.77
2019-03-18T21:12:29.009Z,101821.74
2019-03-18T21:15:12.891Z,101817.94
2019-03-18T21:17:46.080Z,101815.73
2019-03-18T21:20:19.629Z,101824.73
2019-03-18T21:22:53.434Z,101820.23
2019-03-18T21:25:27.788Z,101826.20
2019-03-18T21:28:09.894Z,101819.72
2019-03-18T21:30:45.865Z,101827.21
2019-03-18T21:33:28.064Z,101832.71
2019-03-18T21:36:01.511Z,101841.69
2019-03-18T21:38:34.774Z,101847.00
2019-03-18T21:41:18.030Z,101853.50
2019-03-18T21:43:51.192Z,101855.51
2019-03-18T21:46:26.711Z,101847.37
2019-03-18T21:49:00.538Z,101854.37
2019-03-18T21:51:33.815Z,101867.84
2019-03-18T21:54:07.353Z,101871.34
2019-03-18T21:56:40.911Z,101865.71
2019-03-18T21:59:14.403Z,101866.71
2019-03-18T22:01:48.957Z,101868.38
2019-03-18T22:04:31.723Z,101869.24
2019-03-18T22:07:05.266Z,101877.69
2019-03-18T22:09:39.449Z,101886.51
2019-03-18T22:12:13.366Z,101883.84
2019-03-18T22:14:46.887Z,101884.70
2019-03-18T22:17:20.287Z,101880.87
2019-03-18T22:19:54.524Z,101879.38
2019-03-18T22:22:28.452Z,101884.99
2019-03-18T22:25:04.520Z,101890.67
2019-03-18T22:27:38.109Z,101889.33
2019-03-18T22:30:11.956Z,101888.50
2019-03-18T22:32:45.413Z,101893.95
2019-03-18T22:35:19.015Z,101890.93
2019-03-18T22:37:52.798Z,101896.12
2019-03-18T22:40:26.534Z,101892.59
2019-03-18T22:42:59.820Z,101896.58
2019-03-18T22:45:33.487Z,101882.77
2019-03-18T22:48:06.693Z,101888.27
2019-03-18T22:50:40.247Z,101890.59
2019-03-18T22:53:28.748Z,101910.62
2019-03-18T22:56:11.101Z,101919.13
2019-03-18T22:58:44.073Z,101925.26
2019-03-18T23:01:20.147Z,101918.95
2019-03-18T23:03:54.241Z,101923.41
2019-03-18T23:06:42.586Z,101918.58
2019-03-18T23:09:15.699Z,101917.53
2019-03-18T23:11:50.023Z,101923.20
2019-03-18T23:14:32.418Z,101920.53
2019-03-18T23:17:05.742Z,101924.50
2019-03-18T23:19:40.630Z,101934.81
2019-03-18T23:22:16.089Z,101939.16
2019-03-18T23:24:49.260Z,101934.02
2019-03-18T23:27:23.148Z,101934.48
2019-03-18T23:29:56.765Z,101942.47
2019-03-18T23:32:31.595Z,101941.31
2019-03-18T23:35:14.006Z,101936.16
2019-03-18T23:37:48.778Z,101937.13
2019-03-18T23:40:22.077Z,101947.30
2019-03-18T23:42:55.982Z,101951.11
2019-03-18T23:45:29.914Z,101946.23
2019-03-18T23:48:03.219Z,101945.23
2019-03-18T23:50:38.067Z,101941.73
2019-03-18T23:53:11.224Z,101950.67
2019-03-18T23:55:54.630Z,101958.03
2019-03-18T23:58:28.094Z,101962.83
